sensor_id;sensor_type;location;lat;lon;timestamp;pressure;altitude;pressure_sealevel;temperature;humidity
71697;BME280;68167;59.120;37.898;2023-07-22T00:01:02;98750.88;;;14.13;68.11
71697;BME280;68167;59.120;37.898;2023-07-22T00:03:29;98775.53;;;14.24;67.99
71697;BME280;68167;59.120;37.898;2023-07-22T00:06:05;98779.78;;;14.25;67.75
71697;BME280;68167;59.120;37.898;2023-07-22T00:08:33;98759.81;;;14.09;68.25
71697;BME280;68167;59.120;37.898;2023-07-22T00:10:59;98751.44;;;14.02;68.48
71697;BME280;68167;59.120;37.898;2023-07-22T00:13:26;98782.56;;;14.20;68.91
71697;BME280;68167;59.120;37.898;2023-07-22T00:15:56;98715.19;;;13.73;69.02
71697;BME280;68167;59.120;37.898;2023-07-22T00:18:22;98765.00;;;14.05;68.97
71697;BME280;68167;59.120;37.898;2023-07-22T00:20:49;98712.50;;;13.73;68.90
71697;BME280;68167;59.120;37.898;2023-07-22T00:23:16;98781.72;;;14.11;69.01
71697;BME280;68167;59.120;37.898;2023-07-22T00:25:43;98787.97;;;14.06;69.41
71697;BME280;68167;59.120;37.898;2023-07-22T00:28:09;98758.72;;;13.88;69.67
71697;BME280;68167;59.120;37.898;2023-07-22T00:30:36;98759.63;;;13.83;69.60
71697;BME280;68167;59.120;37.898;2023-07-22T00:33:02;98788.09;;;14.01;69.48
71697;BME280;68167;59.120;37.898;2023-07-22T00:35:28;98788.09;;;14.01;69.97
71697;BME280;68167;59.120;37.898;2023-07-22T00:37:54;98789.31;;;13.95;69.79
71697;BME280;68167;59.120;37.898;2023-07-22T00:40:21;98740.47;;;13.67;69.79
71697;BME280;68167;59.120;37.898;2023-07-22T00:42:47;98752.44;;;13.70;69.66
71697;BME280;68167;59.120;37.898;2023-07-22T00:45:13;98794.06;;;13.98;69.84
71697;BME280;68167;59.120;37.898;2023-07-22T00:47:40;98774.28;;;13.85;69.91
71697;BME280;68167;59.120;37.898;2023-07-22T00:50:07;98791.81;;;13.92;69.84
71697;BME280;68167;59.120;37.898;2023-07-22T00:52:34;98722.72;;;13.49;70.15
71697;BME280;68167;59.120;37.898;2023-07-22T00:55:02;98757.59;;;13.66;70.26
71697;BME280;68167;59.120;37.898;2023-07-22T00:57:30;98795.56;;;13.91;70.32
71697;BME280;68167;59.120;37.898;2023-07-22T00:59:56;98791.72;;;13.83;70.49
71697;BME280;68167;59.120;37.898;2023-07-22T01:02:23;98784.00;;;13.81;70.33
71697;BME280;68167;59.120;37.898;2023-07-22T01:04:50;98759.47;;;13.66;70.13
71697;BME280;68167;59.120;37.898;2023-07-22T01:07:18;98770.97;;;13.66;70.07
71697;BME280;68167;59.120;37.898;2023-07-22T01:09:44;98796.97;;;13.88;70.22
71697;BME280;68167;59.120;37.898;2023-07-22T01:12:11;98778.88;;;13.71;69.89
71697;BME280;68167;59.120;37.898;2023-07-22T01:14:41;98806.69;;;13.84;70.55
71697;BME280;68167;59.120;37.898;2023-07-22T01:17:09;98770.03;;;13.62;70.51
71697;BME280;68167;59.120;37.898;2023-07-22T01:19:36;98808.56;;;13.83;70.92
71697;BME280;68167;59.120;37.898;2023-07-22T01:22:06;98749.84;;;13.42;70.90
71697;BME280;68167;59.120;37.898;2023-07-22T01:24:34;98746.09;;;13.43;70.64
71697;BME280;68167;59.120;37.898;2023-07-22T01:27:00;98781.00;;;13.61;70.58
71697;BME280;68167;59.120;37.898;2023-07-22T01:29:26;98794.03;;;13.76;70.90
71697;BME280;68167;59.120;37.898;2023-07-22T01:31:54;98748.28;;;13.41;70.62
71697;BME280;68167;59.120;37.898;2023-07-22T01:34:22;98797.50;;;13.76;71.06
71697;BME280;68167;59.120;37.898;2023-07-22T01:36:50;98812.22;;;13.88;70.84
71697;BME280;68167;59.120;37.898;2023-07-22T01:39:17;98809.84;;;13.86;70.73
71697;BME280;68167;59.120;37.898;2023-07-22T01:41:48;98783.25;;;13.67;70.61
71697;BME280;68167;59.120;37.898;2023-07-22T01:44:14;98811.75;;;13.85;71.02
71697;BME280;68167;59.120;37.898;2023-07-22T01:46:41;98817.09;;;13.85;70.79
71697;BME280;68167;59.120;37.898;2023-07-22T01:49:12;98753.72;;;13.50;70.71
71697;BME280;68167;59.120;37.898;2023-07-22T01:51:39;98809.06;;;13.85;70.34
71697;BME280;68167;59.120;37.898;2023-07-22T01:54:09;98785.13;;;13.67;70.37
71697;BME280;68167;59.120;37.898;2023-07-22T01:56:36;98826.47;;;13.97;70.26
71697;BME280;68167;59.120;37.898;2023-07-22T01:59:03;98813.81;;;13.89;70.14
71697;BME280;68167;59.120;37.898;2023-07-22T02:01:29;98779.47;;;13.68;70.35
71697;BME280;68167;59.120;37.898;2023-07-22T02:03:55;98822.41;;;13.99;70.21
71697;BME280;68167;59.120;37.898;2023-07-22T02:06:22;98813.69;;;13.94;70.33
71697;BME280;68167;59.120;37.898;2023-07-22T02:08:48;98753.00;;;13.58;70.39
71697;BME280;68167;59.120;37.898;2023-07-22T02:11:16;98815.59;;;13.93;70.02
71697;BME280;68167;59.120;37.898;2023-07-22T02:13:43;98821.31;;;14.00;70.36
71697;BME280;68167;59.120;37.898;2023-07-22T02:16:10;98828.44;;;14.05;69.77
71697;BME280;68167;59.120;37.898;2023-07-22T02:18:37;98807.31;;;14.03;70.16
71697;BME280;68167;59.120;37.898;2023-07-22T02:21:03;98776.47;;;13.83;70.02
71697;BME280;68167;59.120;37.898;2023-07-22T02:23:30;98822.84;;;14.15;69.45
71697;BME280;68167;59.120;37.898;2023-07-22T02:25:56;98808.19;;;14.12;69.84
71697;BME280;68167;59.120;37.898;2023-07-22T02:28:22;98747.56;;;13.72;69.75
71697;BME280;68167;59.120;37.898;2023-07-22T02:30:50;98818.66;;;14.23;69.75
71697;BME280;68167;59.120;37.898;2023-07-22T02:33:22;98796.19;;;14.10;69.54
71697;BME280;68167;59.120;37.898;2023-07-22T02:35:48;98810.00;;;14.26;69.70
71697;BME280;68167;59.120;37.898;2023-07-22T02:38:15;98810.03;;;14.34;69.16
71697;BME280;68167;59.120;37.898;2023-07-22T02:40:41;98814.97;;;14.41;69.18
71697;BME280;68167;59.120;37.898;2023-07-22T02:43:07;98818.84;;;14.48;69.37
71697;BME280;68167;59.120;37.898;2023-07-22T02:45:34;98778.69;;;14.26;68.71
71697;BME280;68167;59.120;37.898;2023-07-22T02:48:01;98761.09;;;14.11;68.59
71697;BME280;68167;59.120;37.898;2023-07-22T02:50:27;98822.34;;;14.58;68.44
71697;BME280;68167;59.120;37.898;2023-07-22T02:52:53;98830.13;;;14.68;68.43
71697;BME280;68167;59.120;37.898;2023-07-22T02:55:20;98785.91;;;14.48;68.24
71697;BME280;68167;59.120;37.898;2023-07-22T02:57:47;98818.19;;;14.74;68.07
71697;BME280;68167;59.120;37.898;2023-07-22T03:00:15;98795.63;;;14.66;67.96
71697;BME280;68167;59.120;37.898;2023-07-22T03:02:52;98808.44;;;14.78;67.66
71697;BME280;68167;59.120;37.898;2023-07-22T03:05:19;98823.47;;;14.96;67.23
71697;BME280;68167;59.120;37.898;2023-07-22T03:07:45;98818.28;;;15.00;67.55
71697;BME280;68167;59.120;37.898;2023-07-22T03:10:11;98779.94;;;14.82;67.21
71697;BME280;68167;59.120;37.898;2023-07-22T03:12:38;98824.03;;;15.15;66.96
71697;BME280;68167;59.120;37.898;2023-07-22T03:15:05;98773.22;;;14.93;67.23
71697;BME280;68167;59.120;37.898;2023-07-22T03:17:35;98792.44;;;15.04;67.04
71697;BME280;68167;59.120;37.898;2023-07-22T03:20:03;98792.31;;;15.09;67.15
71697;BME280;68167;59.120;37.898;2023-07-22T03:22:48;98819.97;;;15.27;67.17
71697;BME280;68167;59.120;37.898;2023-07-22T03:25:15;98817.59;;;15.25;67.06
71697;BME280;68167;59.120;37.898;2023-07-22T03:27:43;98783.31;;;15.05;67.22
71697;BME280;68167;59.120;37.898;2023-07-22T03:30:15;98797.38;;;15.10;67.24
71697;BME280;68167;59.120;37.898;2023-07-22T03:32:43;98802.09;;;15.13;67.15
71697;BME280;68167;59.120;37.898;2023-07-22T03:35:10;98812.69;;;15.19;67.01
71697;BME280;68167;59.120;37.898;2023-07-22T03:37:36;98842.72;;;15.38;66.71
71697;BME280;68167;59.120;37.898;2023-07-22T03:40:04;98806.53;;;15.18;67.06
71697;BME280;68167;59.120;37.898;2023-07-22T03:42:59;98838.94;;;15.39;67.09
71697;BME280;68167;59.120;37.898;2023-07-22T03:45:26;98827.44;;;15.38;67.03
71697;BME280;68167;59.120;37.898;2023-07-22T03:47:56;98847.31;;;15.46;67.27
71697;BME280;68167;59.120;37.898;2023-07-22T03:50:24;98842.13;;;15.49;67.36
71697;BME280;68167;59.120;37.898;2023-07-22T03:52:50;98845.28;;;15.52;67.42
71697;BME280;68167;59.120;37.898;2023-07-22T03:55:16;98804.38;;;15.29;67.42
71697;BME280;68167;59.120;37.898;2023-07-22T03:57:42;98830.91;;;15.47;67.26
71697;BME280;68167;59.120;37.898;2023-07-22T04:00:09;98782.25;;;15.14;67.24
71697;BME280;68167;59.120;37.898;2023-07-22T04:02:38;98852.13;;;15.58;67.14
71697;BME280;68167;59.120;37.898;2023-07-22T04:05:05;98850.03;;;15.55;67.25
71697;BME280;68167;59.120;37.898;2023-07-22T04:07:31;98852.72;;;15.55;66.90
71697;BME280;68167;59.120;37.898;2023-07-22T04:09:57;98846.44;;;15.59;66.84
71697;BME280;68167;59.120;37.898;2023-07-22T04:12:24;98807.84;;;15.38;66.88
71697;BME280;68167;59.120;37.898;2023-07-22T04:14:50;98831.88;;;15.52;66.82
71697;BME280;68167;59.120;37.898;2023-07-22T04:17:16;98846.25;;;15.56;67.18
71697;BME280;68167;59.120;37.898;2023-07-22T04:19:42;98841.38;;;15.58;66.99
71697;BME280;68167;59.120;37.898;2023-07-22T04:22:11;98793.47;;;15.25;66.78
71697;BME280;68167;59.120;37.898;2023-07-22T04:24:38;98843.09;;;15.62;66.95
71697;BME280;68167;59.120;37.898;2023-07-22T04:27:04;98850.06;;;15.72;66.86
71697;BME280;68167;59.120;37.898;2023-07-22T04:29:30;98832.72;;;15.69;66.55
71697;BME280;68167;59.120;37.898;2023-07-22T04:32:01;98823.72;;;15.74;66.39
71697;BME280;68167;59.120;37.898;2023-07-22T04:34:33;98832.41;;;15.79;66.40
71697;BME280;68167;59.120;37.898;2023-07-22T04:37:00;98883.75;;;16.04;66.20
71697;BME280;68167;59.120;37.898;2023-07-22T04:39:27;98851.53;;;15.95;65.90
71697;BME280;68167;59.120;37.898;2023-07-22T04:41:54;98845.38;;;15.95;65.97
71697;BME280;68167;59.120;37.898;2023-07-22T04:44:20;98871.75;;;16.10;66.14
71697;BME280;68167;59.120;37.898;2023-07-22T04:46:46;98872.41;;;16.24;66.00
71697;BME280;68167;59.120;37.898;2023-07-22T04:49:13;98854.06;;;16.09;65.66
71697;BME280;68167;59.120;37.898;2023-07-22T04:51:39;98881.06;;;16.30;65.36
71697;BME280;68167;59.120;37.898;2023-07-22T04:54:06;98904.28;;;16.34;65.11
71697;BME280;68167;59.120;37.898;2023-07-22T04:56:32;98849.31;;;16.06;65.49
71697;BME280;68167;59.120;37.898;2023-07-22T04:58:58;98865.88;;;16.34;65.23
71697;BME280;68167;59.120;37.898;2023-07-22T05:01:24;98831.31;;;16.24;65.65
71697;BME280;68167;59.120;37.898;2023-07-22T05:03:51;98859.09;;;16.45;64.90
71697;BME280;68167;59.120;37.898;2023-07-22T05:06:21;98876.63;;;16.60;64.92
71697;BME280;68167;59.120;37.898;2023-07-22T05:08:47;98818.84;;;16.19;65.09
71697;BME280;68167;59.120;37.898;2023-07-22T05:11:13;98836.03;;;16.35;64.62
71697;BME280;68167;59.120;37.898;2023-07-22T05:13:39;98847.56;;;16.44;64.68
71697;BME280;68167;59.120;37.898;2023-07-22T05:16:06;98839.19;;;16.46;65.06
71697;BME280;68167;59.120;37.898;2023-07-22T05:18:32;98878.38;;;16.73;64.46
71697;BME280;68167;59.120;37.898;2023-07-22T05:20:58;98873.16;;;16.76;64.77
71697;BME280;68167;59.120;37.898;2023-07-22T05:23:24;98881.50;;;16.84;64.36
71697;BME280;68167;59.120;37.898;2023-07-22T05:25:52;98843.72;;;16.63;64.44
71697;BME280;68167;59.120;37.898;2023-07-22T05:28:18;98866.16;;;16.84;64.51
71697;BME280;68167;59.120;37.898;2023-07-22T05:30:44;98873.72;;;16.91;64.15
71697;BME280;68167;59.120;37.898;2023-07-22T05:33:11;98848.78;;;16.82;64.12
71697;BME280;68167;59.120;37.898;2023-07-22T05:35:38;98838.50;;;16.84;64.19
71697;BME280;68167;59.120;37.898;2023-07-22T05:38:04;98872.72;;;17.04;63.84
71697;BME280;68167;59.120;37.898;2023-07-22T05:40:30;98871.31;;;17.06;64.07
71697;BME280;68167;59.120;37.898;2023-07-22T05:42:57;98863.56;;;17.05;63.72
71697;BME280;68167;59.120;37.898;2023-07-22T05:45:23;98857.34;;;17.13;63.55
71697;BME280;68167;59.120;37.898;2023-07-22T05:47:49;98874.72;;;17.24;63.48
71697;BME280;68167;59.120;37.898;2023-07-22T05:50:15;98854.66;;;17.13;62.91
71697;BME280;68167;59.120;37.898;2023-07-22T05:52:41;98845.19;;;17.07;62.70
71697;BME280;68167;59.120;37.898;2023-07-22T05:55:08;98850.88;;;17.14;62.28
71697;BME280;68167;59.120;37.898;2023-07-22T05:57:34;98857.91;;;17.36;62.49
71697;BME280;68167;59.120;37.898;2023-07-22T06:00:01;98870.06;;;17.42;62.28
71697;BME280;68167;59.120;37.898;2023-07-22T06:02:38;98847.47;;;17.34;61.73
71697;BME280;68167;59.120;37.898;2023-07-22T06:05:04;98859.13;;;17.47;61.41
71697;BME280;68167;59.120;37.898;2023-07-22T06:07:30;98872.84;;;17.54;61.28
71697;BME280;68167;59.120;37.898;2023-07-22T06:09:57;98810.63;;;17.26;61.07
71697;BME280;68167;59.120;37.898;2023-07-22T06:12:23;98837.59;;;17.47;61.30
71697;BME280;68167;59.120;37.898;2023-07-22T06:14:49;98836.41;;;17.57;60.55
71697;BME280;68167;59.120;37.898;2023-07-22T06:17:15;98846.19;;;17.61;60.50
71697;BME280;68167;59.120;37.898;2023-07-22T06:19:42;98853.72;;;17.76;60.51
71697;BME280;68167;59.120;37.898;2023-07-22T06:22:08;98838.56;;;17.63;60.08
71697;BME280;68167;59.120;37.898;2023-07-22T06:24:34;98827.97;;;17.67;60.21
71697;BME280;68167;59.120;37.898;2023-07-22T06:27:00;98835.72;;;17.68;60.28
71697;BME280;68167;59.120;37.898;2023-07-22T06:29:27;98875.34;;;17.89;59.60
71697;BME280;68167;59.120;37.898;2023-07-22T06:31:53;98842.69;;;17.69;60.29
71697;BME280;68167;59.120;37.898;2023-07-22T06:34:19;98868.97;;;17.93;60.26
71697;BME280;68167;59.120;37.898;2023-07-22T06:36:46;98870.81;;;18.01;59.74
71697;BME280;68167;59.120;37.898;2023-07-22T06:39:12;98868.91;;;18.02;59.39
71697;BME280;68167;59.120;37.898;2023-07-22T06:41:38;98852.97;;;17.97;59.64
71697;BME280;68167;59.120;37.898;2023-07-22T06:44:05;98830.41;;;17.81;59.71
71697;BME280;68167;59.120;37.898;2023-07-22T06:46:31;98865.63;;;17.96;59.53
71697;BME280;68167;59.120;37.898;2023-07-22T06:48:58;98828.56;;;17.72;59.33
71697;BME280;68167;59.120;37.898;2023-07-22T06:51:24;98868.78;;;17.98;59.94
71697;BME280;68167;59.120;37.898;2023-07-22T06:53:51;98832.38;;;17.71;59.65
71697;BME280;68167;59.120;37.898;2023-07-22T06:56:17;98837.06;;;17.83;59.43
71697;BME280;68167;59.120;37.898;2023-07-22T06:58:43;98825.34;;;17.79;59.08
71697;BME280;68167;59.120;37.898;2023-07-22T07:01:09;98864.66;;;18.01;58.80
71697;BME280;68167;59.120;37.898;2023-07-22T07:03:35;98878.38;;;18.08;58.32
71697;BME280;68167;59.120;37.898;2023-07-22T07:06:02;98871.88;;;18.09;58.50
71697;BME280;68167;59.120;37.898;2023-07-22T07:08:28;98871.50;;;18.19;58.93
71697;BME280;68167;59.120;37.898;2023-07-22T07:10:54;98869.09;;;18.38;58.56
71697;BME280;68167;59.120;37.898;2023-07-22T07:13:20;98862.75;;;18.55;56.95
71697;BME280;68167;59.120;37.898;2023-07-22T07:15:47;98869.59;;;18.73;56.16
71697;BME280;68167;59.120;37.898;2023-07-22T07:18:17;98876.13;;;18.85;56.16
71697;BME280;68167;59.120;37.898;2023-07-22T07:20:44;98896.38;;;19.03;55.67
71697;BME280;68167;59.120;37.898;2023-07-22T07:23:10;98843.19;;;18.79;55.54
71697;BME280;68167;59.120;37.898;2023-07-22T07:25:36;98860.75;;;18.97;54.87
71697;BME280;68167;59.120;37.898;2023-07-22T07:28:03;98849.63;;;19.11;55.12
71697;BME280;68167;59.120;37.898;2023-07-22T07:30:29;98827.38;;;19.02;54.68
71697;BME280;68167;59.120;37.898;2023-07-22T07:32:56;98876.31;;;19.49;54.19
71697;BME280;68167;59.120;37.898;2023-07-22T07:35:22;98850.88;;;19.26;53.65
71697;BME280;68167;59.120;37.898;2023-07-22T07:37:48;98886.44;;;19.52;54.01
71697;BME280;68167;59.120;37.898;2023-07-22T07:40:14;98860.69;;;19.42;54.01
71697;BME280;68167;59.120;37.898;2023-07-22T07:42:41;98888.13;;;19.57;53.91
71697;BME280;68167;59.120;37.898;2023-07-22T07:45:07;98884.19;;;19.54;54.05
71697;BME280;68167;59.120;37.898;2023-07-22T07:47:34;98864.38;;;19.50;53.68
71697;BME280;68167;59.120;37.898;2023-07-22T07:50:00;98882.94;;;19.64;53.50
71697;BME280;68167;59.120;37.898;2023-07-22T07:52:27;98837.84;;;19.52;53.54
71697;BME280;68167;59.120;37.898;2023-07-22T07:54:53;98816.25;;;19.52;53.40
71697;BME280;68167;59.120;37.898;2023-07-22T07:57:19;98877.97;;;19.90;52.97
71697;BME280;68167;59.120;37.898;2023-07-22T07:59:46;98849.75;;;19.76;53.03
71697;BME280;68167;59.120;37.898;2023-07-22T08:02:12;98864.69;;;19.85;53.10
71697;BME280;68167;59.120;37.898;2023-07-22T08:04:38;98870.56;;;19.87;53.51
71697;BME280;68167;59.120;37.898;2023-07-22T08:07:06;98854.03;;;19.77;53.55
71697;BME280;68167;59.120;37.898;2023-07-22T08:09:32;98844.44;;;19.79;52.98
71697;BME280;68167;59.120;37.898;2023-07-22T08:11:58;98867.63;;;19.92;52.14
71697;BME280;68167;59.120;37.898;2023-07-22T08:14:25;98894.03;;;20.11;52.11
71697;BME280;68167;59.120;37.898;2023-07-22T08:16:51;98891.81;;;20.01;51.94
71697;BME280;68167;59.120;37.898;2023-07-22T08:19:17;98825.34;;;19.72;51.77
71697;BME280;68167;59.120;37.898;2023-07-22T08:21:44;98887.25;;;20.17;52.23
71697;BME280;68167;59.120;37.898;2023-07-22T08:24:10;98888.19;;;20.37;50.95
71697;BME280;68167;59.120;37.898;2023-07-22T08:26:36;98899.44;;;20.51;50.69
71697;BME280;68167;59.120;37.898;2023-07-22T08:29:03;98895.72;;;20.56;49.92
71697;BME280;68167;59.120;37.898;2023-07-22T08:31:29;98877.56;;;20.56;50.00
71697;BME280;68167;59.120;37.898;2023-07-22T08:33:56;98897.03;;;20.62;49.84
71697;BME280;68167;59.120;37.898;2023-07-22T08:36:22;98872.66;;;20.46;49.37
71697;BME280;68167;59.120;37.898;2023-07-22T08:38:49;98903.09;;;20.71;49.00
71697;BME280;68167;59.120;37.898;2023-07-22T08:41:15;98885.81;;;20.76;48.61
71697;BME280;68167;59.120;37.898;2023-07-22T08:43:48;98897.19;;;20.97;47.31
71697;BME280;68167;59.120;37.898;2023-07-22T08:46:19;98907.16;;;21.09;47.48
71697;BME280;68167;59.120;37.898;2023-07-22T08:48:47;98889.06;;;21.13;46.51
71697;BME280;68167;59.120;37.898;2023-07-22T08:51:16;98915.06;;;21.29;45.15
71697;BME280;68167;59.120;37.898;2023-07-22T08:53:47;98912.78;;;21.31;44.39
71697;BME280;68167;59.120;37.898;2023-07-22T08:56:13;98914.19;;;21.41;44.88
71697;BME280;68167;59.120;37.898;2023-07-22T08:58:41;98842.00;;;21.01;44.35
71697;BME280;68167;59.120;37.898;2023-07-22T09:01:08;98882.41;;;21.22;45.09
71697;BME280;68167;59.120;37.898;2023-07-22T09:03:35;98884.31;;;21.22;44.94
71697;BME280;68167;59.120;37.898;2023-07-22T09:06:04;98895.31;;;21.45;45.73
71697;BME280;68167;59.120;37.898;2023-07-22T09:08:31;98863.31;;;21.50;45.19
71697;BME280;68167;59.120;37.898;2023-07-22T09:10:57;98907.84;;;21.84;44.70
71697;BME280;68167;59.120;37.898;2023-07-22T09:13:25;98902.69;;;21.79;45.41
71697;BME280;68167;59.120;37.898;2023-07-22T09:15:53;98883.28;;;21.77;45.47
71697;BME280;68167;59.120;37.898;2023-07-22T09:18:19;98897.88;;;21.73;45.72
71697;BME280;68167;59.120;37.898;2023-07-22T09:20:45;98897.03;;;21.68;45.76
71697;BME280;68167;59.120;37.898;2023-07-22T09:23:13;98886.72;;;21.58;45.78
71697;BME280;68167;59.120;37.898;2023-07-22T09:25:40;98901.38;;;21.73;45.85
71697;BME280;68167;59.120;37.898;2023-07-22T09:28:07;98885.41;;;21.52;45.95
71697;BME280;68167;59.120;37.898;2023-07-22T09:30:35;98913.28;;;21.68;44.92
71697;BME280;68167;59.120;37.898;2023-07-22T09:33:06;98895.44;;;21.67;44.94
71697;BME280;68167;59.120;37.898;2023-07-22T09:35:47;98921.56;;;21.91;45.36
71697;BME280;68167;59.120;37.898;2023-07-22T09:38:14;98912.91;;;22.01;45.06
71697;BME280;68167;59.120;37.898;2023-07-22T09:40:44;98913.78;;;22.06;44.11
71697;BME280;68167;59.120;37.898;2023-07-22T09:43:11;98883.25;;;21.93;44.60
71697;BME280;68167;59.120;37.898;2023-07-22T09:45:40;98927.06;;;21.95;44.78
71697;BME280;68167;59.120;37.898;2023-07-22T09:48:08;98920.88;;;21.79;45.39
71697;BME280;68167;59.120;37.898;2023-07-22T09:50:36;98904.19;;;21.45;45.80
71697;BME280;68167;59.120;37.898;2023-07-22T09:53:02;98908.56;;;21.50;46.35
71697;BME280;68167;59.120;37.898;2023-07-22T09:55:31;98887.47;;;21.40;46.02
71697;BME280;68167;59.120;37.898;2023-07-22T09:58:04;98924.47;;;21.67;44.44
71697;BME280;68167;59.120;37.898;2023-07-22T10:00:36;98924.38;;;21.79;44.18
71697;BME280;68167;59.120;37.898;2023-07-22T10:03:04;98889.94;;;21.64;43.50
71697;BME280;68167;59.120;37.898;2023-07-22T10:05:37;98837.00;;;21.51;44.10
71697;BME280;68167;59.120;37.898;2023-07-22T10:08:05;98938.03;;;22.18;44.27
71697;BME280;68167;59.120;37.898;2023-07-22T10:10:38;98908.91;;;22.15;44.69
71697;BME280;68167;59.120;37.898;2023-07-22T10:13:05;98883.94;;;22.06;43.57
71697;BME280;68167;59.120;37.898;2023-07-22T10:15:32;98888.84;;;22.00;43.80
71697;BME280;68167;59.120;37.898;2023-07-22T10:18:01;98925.31;;;22.02;44.05
71697;BME280;68167;59.120;37.898;2023-07-22T10:20:29;98918.31;;;22.01;44.09
71697;BME280;68167;59.120;37.898;2023-07-22T10:22:56;98930.28;;;22.00;43.87
71697;BME280;68167;59.120;37.898;2023-07-22T10:25:23;98893.59;;;21.72;43.13
71697;BME280;68167;59.120;37.898;2023-07-22T10:27:51;98868.03;;;21.53;42.75
71697;BME280;68167;59.120;37.898;2023-07-22T10:30:18;98899.09;;;21.91;43.09
71697;BME280;68167;59.120;37.898;2023-07-22T10:32:49;98910.34;;;22.28;42.17
71697;BME280;68167;59.120;37.898;2023-07-22T10:35:41;98906.28;;;22.38;43.03
71697;BME280;68167;59.120;37.898;2023-07-22T10:38:12;98917.81;;;22.15;42.54
71697;BME280;68167;59.120;37.898;2023-07-22T10:40:45;98927.25;;;21.86;43.22
71697;BME280;68167;59.120;37.898;2023-07-22T10:43:12;98884.06;;;21.43;44.64
71697;BME280;68167;59.120;37.898;2023-07-22T10:45:43;98898.81;;;21.29;45.18
71697;BME280;68167;59.120;37.898;2023-07-22T10:48:11;98912.63;;;21.24;45.68
71697;BME280;68167;59.120;37.898;2023-07-22T10:50:54;98922.84;;;21.31;45.98
71697;BME280;68167;59.120;37.898;2023-07-22T11:04:25;98924.44;;;22.72;44.02
71697;BME280;68167;59.120;37.898;2023-07-22T11:07:05;98940.69;;;22.91;42.59
71697;BME280;68167;59.120;37.898;2023-07-22T11:12:02;98901.25;;;22.78;42.60
71697;BME280;68167;59.120;37.898;2023-07-22T11:14:31;98928.41;;;22.97;41.88
71697;BME280;68167;59.120;37.898;2023-07-22T11:16:59;98917.59;;;23.01;41.62
71697;BME280;68167;59.120;37.898;2023-07-22T11:19:34;98890.47;;;23.01;42.13
71697;BME280;68167;59.120;37.898;2023-07-22T11:22:01;98903.53;;;22.95;42.24
71697;BME280;68167;59.120;37.898;2023-07-22T11:24:27;98899.34;;;22.79;42.89
71697;BME280;68167;59.120;37.898;2023-07-22T11:26:54;98901.16;;;22.71;43.36
71697;BME280;68167;59.120;37.898;2023-07-22T11:29:20;98898.16;;;22.57;43.72
71697;BME280;68167;59.120;37.898;2023-07-22T11:31:48;98923.94;;;23.09;42.62
71697;BME280;68167;59.120;37.898;2023-07-22T11:34:19;98902.53;;;23.26;42.48
71697;BME280;68167;59.120;37.898;2023-07-22T11:36:48;98909.03;;;23.45;41.68
71697;BME280;68167;59.120;37.898;2023-07-22T11:39:19;98938.41;;;23.85;41.19
71697;BME280;68167;59.120;37.898;2023-07-22T11:41:47;98931.06;;;24.15;40.81
71697;BME280;68167;59.120;37.898;2023-07-22T11:44:15;98929.03;;;24.35;40.58
71697;BME280;68167;59.120;37.898;2023-07-22T11:47:05;98931.59;;;24.54;40.66
71697;BME280;68167;59.120;37.898;2023-07-22T11:49:40;98944.19;;;24.66;39.52
71697;BME280;68167;59.120;37.898;2023-07-22T11:52:12;98904.53;;;24.35;39.08
71697;BME280;68167;59.120;37.898;2023-07-22T11:54:42;98948.97;;;24.43;40.05
71697;BME280;68167;59.120;37.898;2023-07-22T11:57:16;98919.75;;;23.83;39.96
71697;BME280;68167;59.120;37.898;2023-07-22T11:59:45;98919.81;;;23.38;40.61
71697;BME280;68167;59.120;37.898;2023-07-22T12:04:43;98939.88;;;23.10;41.43
71697;BME280;68167;59.120;37.898;2023-07-22T12:07:28;98882.41;;;22.85;41.12
71697;BME280;68167;59.120;37.898;2023-07-22T12:09:57;98885.84;;;22.82;41.52
71697;BME280;68167;59.120;37.898;2023-07-22T12:12:34;98939.09;;;23.10;41.84
71697;BME280;68167;59.120;37.898;2023-07-22T12:15:08;98921.69;;;22.91;42.04
71697;BME280;68167;59.120;37.898;2023-07-22T12:17:50;98919.34;;;22.90;42.21
71697;BME280;68167;59.120;37.898;2023-07-22T12:20:17;98909.75;;;22.96;42.65
71697;BME280;68167;59.120;37.898;2023-07-22T12:22:43;98925.00;;;23.23;43.52
71697;BME280;68167;59.120;37.898;2023-07-22T12:25:10;98908.16;;;23.37;42.86
71697;BME280;68167;59.120;37.898;2023-07-22T12:27:37;98926.38;;;23.59;42.97
71697;BME280;68167;59.120;37.898;2023-07-22T12:30:05;98925.88;;;23.77;41.61
71697;BME280;68167;59.120;37.898;2023-07-22T12:32:33;98922.28;;;23.95;41.42
71697;BME280;68167;59.120;37.898;2023-07-22T12:34:59;98867.13;;;23.69;40.32
71697;BME280;68167;59.120;37.898;2023-07-22T12:37:25;98892.72;;;23.94;40.08
71697;BME280;68167;59.120;37.898;2023-07-22T12:39:52;98903.28;;;23.99;40.61
71697;BME280;68167;59.120;37.898;2023-07-22T12:42:18;98924.56;;;23.93;40.10
71697;BME280;68167;59.120;37.898;2023-07-22T12:44:44;98914.00;;;23.62;39.99
71697;BME280;68167;59.120;37.898;2023-07-22T12:47:11;98915.19;;;23.42;40.68
71697;BME280;68167;59.120;37.898;2023-07-22T12:49:37;98912.88;;;23.44;40.65
71697;BME280;68167;59.120;37.898;2023-07-22T12:52:04;98885.09;;;23.27;40.64
71697;BME280;68167;59.120;37.898;2023-07-22T12:54:37;98903.22;;;23.46;40.31
71697;BME280;68167;59.120;37.898;2023-07-22T12:57:04;98926.16;;;23.49;40.44
71697;BME280;68167;59.120;37.898;2023-07-22T12:59:30;98936.97;;;23.45;39.91
71697;BME280;68167;59.120;37.898;2023-07-22T13:01:57;98874.03;;;22.94;40.42
71697;BME280;68167;59.120;37.898;2023-07-22T13:04:24;98871.38;;;22.97;40.72
71697;BME280;68167;59.120;37.898;2023-07-22T13:06:50;98926.69;;;23.54;40.54
71697;BME280;68167;59.120;37.898;2023-07-22T13:09:20;98921.94;;;23.74;40.24